Time;durP1;ratioP1;P1;durP2;ratioP2;P2;SDS_P1;SDS_P2;PMS_P1;PMS_P2;Temp;Humidity;BMP_temperature;BMP_pressure;BME280_temperature;BME280_humidity;BME280_pressure;Samples;Min_cycle;Max_cycle;Signal;HPM_P1;HPM_P2
2022/01/15 00:00:38;;;;;;;372.27;166.07;;;2.50;99.90;;;;;;5057342;28;20021;-48
2022/01/15 00:03:06;;;;;;;348.17;156.05;;;2.50;99.90;;;;;;5057613;28;20156;-62
2022/01/15 00:05:33;;;;;;;358.95;158.55;;;2.50;99.90;;;;;;5057301;28;20096;-60
2022/01/15 00:07:59;;;;;;;387.15;174.23;;;2.50;99.90;;;;;;5057778;28;20028;-65
2022/01/15 00:10:27;;;;;;;482.13;236.32;;;2.50;99.90;;;;;;5057165;28;20017;-61
2022/01/15 00:12:58;;;;;;;639.17;334.02;;;2.40;99.90;;;;;;5057484;28;20385;-66
2022/01/15 00:15:31;;;;;;;591.40;316.80;;;2.30;99.90;;;;;;5057460;28;20037;-61
2022/01/15 00:18:17;;;;;;;516.05;268.67;;;2.10;99.90;;;;;;5057416;28;20106;-67
2022/01/15 00:20:42;;;;;;;645.35;338.60;;;2.10;99.90;;;;;;5057218;28;20029;-57
2022/01/15 00:23:08;;;;;;;517.85;264.80;;;2.10;99.90;;;;;;5057149;28;20436;-58
2022/01/15 00:25:34;;;;;;;552.03;278.83;;;2.10;99.90;;;;;;5057078;28;20108;-62
2022/01/15 00:28:01;;;;;;;656.83;341.27;;;2.20;99.90;;;;;;5057110;28;20017;-52
2022/01/15 00:30:27;;;;;;;650.35;347.15;;;2.30;99.90;;;;;;5057271;28;20104;-53
2022/01/15 00:32:54;;;;;;;545.15;291.25;;;2.30;99.90;;;;;;5056840;28;20032;-52
2022/01/15 00:35:21;;;;;;;578.53;309.92;;;2.30;99.90;;;;;;5056428;28;20564;-50
2022/01/15 00:37:47;;;;;;;691.25;362.73;;;2.30;99.90;;;;;;5056827;28;20025;-53
2022/01/15 00:40:16;;;;;;;783.45;422.17;;;2.40;99.90;;;;;;5056657;28;20031;-47
2022/01/15 00:42:43;;;;;;;589.38;318.00;;;2.30;99.90;;;;;;5057001;28;20387;-55
2022/01/15 00:45:14;;;;;;;597.95;320.42;;;2.20;99.90;;;;;;5056953;28;20029;-56
2022/01/15 00:47:40;;;;;;;635.22;343.85;;;2.20;99.90;;;;;;5056512;28;20103;-48
2022/01/15 00:50:08;;;;;;;568.53;301.35;;;2.20;99.90;;;;;;5056334;28;20021;-63
2022/01/15 00:52:34;;;;;;;629.90;339.13;;;2.20;99.90;;;;;;5056450;28;20092;-66
2022/01/15 00:55:00;;;;;;;733.28;398.48;;;2.30;99.90;;;;;;5056387;28;20037;-58
2022/01/15 00:57:26;;;;;;;671.63;370.38;;;2.30;99.90;;;;;;5056601;28;20024;-53
2022/01/15 00:59:52;;;;;;;642.15;353.17;;;2.10;99.90;;;;;;5056562;28;20025;-61
2022/01/15 01:02:17;;;;;;;561.22;305.15;;;2.10;99.90;;;;;;5056310;28;20028;-65
2022/01/15 01:04:43;;;;;;;518.33;277.55;;;2.00;99.90;;;;;;5056021;28;20029;-64
2022/01/15 01:07:10;;;;;;;484.38;259.27;;;2.00;99.90;;;;;;5056319;28;20103;-60
2022/01/15 01:20:28;;;;;;;402.52;183.95;;;2.10;99.90;;;;;;5055997;28;19915;-43
2022/01/15 01:22:57;;;;;;;430.92;205.95;;;2.10;99.90;;;;;;5056193;28;20059;-53
2022/01/15 01:25:24;;;;;;;391.70;187.88;;;2.10;99.90;;;;;;5055781;28;20070;-64
2022/01/15 01:27:54;;;;;;;460.65;230.15;;;2.00;99.90;;;;;;5055744;28;20546;-62
2022/01/15 01:30:28;;;;;;;351.17;162.95;;;2.00;99.90;;;;;;5056205;28;20021;-52
2022/01/15 01:35:42;;;;;;;453.57;220.67;;;2.00;99.90;;;;;;5055840;28;19919;-52
2022/01/15 01:38:19;;;;;;;394.40;179.68;;;2.00;99.90;;;;;;5055774;28;20029;-65
2022/01/15 01:40:49;;;;;;;327.42;152.32;;;1.90;99.90;;;;;;5055589;28;20029;-60
2022/01/15 01:45:48;;;;;;;324.85;155.57;;;1.90;99.90;;;;;;5055544;28;20038;-57
2022/01/15 01:48:14;;;;;;;478.92;244.13;;;1.90;99.90;;;;;;5055361;28;20025;-66
2022/01/15 01:50:40;;;;;;;509.58;256.40;;;1.90;99.90;;;;;;5055596;28;20079;-56
2022/01/15 01:53:06;;;;;;;626.10;316.48;;;1.80;99.90;;;;;;5055330;28;20028;-59
2022/01/15 01:55:32;;;;;;;618.60;309.98;;;1.70;99.90;;;;;;5055219;28;20080;-55
2022/01/15 01:57:58;;;;;;;630.20;317.02;;;1.60;99.90;;;;;;5055169;28;20484;-49
2022/01/15 02:00:26;;;;;;;512.42;260.52;;;1.60;99.90;;;;;;5055209;28;20021;-56
2022/01/15 02:02:53;;;;;;;469.60;228.50;;;1.60;99.90;;;;;;5054934;28;20100;-53
2022/01/15 02:05:19;;;;;;;436.55;213.27;;;1.60;99.90;;;;;;5055471;28;20059;-53
2022/01/15 02:07:45;;;;;;;401.13;189.02;;;1.70;99.90;;;;;;5055291;28;20383;-51
2022/01/15 02:10:14;;;;;;;383.30;175.57;;;1.80;99.90;;;;;;5055425;28;20025;-58
2022/01/15 02:12:41;;;;;;;347.05;157.38;;;1.90;99.90;;;;;;5055039;28;20021;-64
2022/01/15 02:15:09;;;;;;;405.55;190.20;;;1.90;99.90;;;;;;5055043;28;20044;-63
2022/01/15 02:17:36;;;;;;;374.80;176.23;;;1.90;99.90;;;;;;5054677;28;20096;-50
2022/01/15 02:25:58;;;;;;;363.70;166.88;;;1.80;99.90;;;;;;5055009;28;20453;-61
2022/01/15 02:28:26;;;;;;;305.45;138.35;;;1.80;99.90;;;;;;5054752;28;20038;-56
2022/01/15 02:30:57;;;;;;;255.48;122.00;;;1.70;99.90;;;;;;5054466;28;20079;-55
2022/01/15 02:33:24;;;;;;;251.90;120.95;;;1.70;99.90;;;;;;5054615;28;20032;-57
2022/01/15 02:35:50;;;;;;;237.75;114.93;;;1.70;99.90;;;;;;5054710;28;20036;-58
2022/01/15 02:38:16;;;;;;;242.90;113.32;;;1.80;99.90;;;;;;5054347;28;20111;-61
2022/01/15 02:40:43;;;;;;;272.10;127.78;;;1.80;99.90;;;;;;5054490;28;20138;-49
2022/01/15 02:43:14;;;;;;;216.77;102.63;;;1.70;99.90;;;;;;5054395;28;20112;-59
2022/01/15 02:45:45;;;;;;;280.10;135.05;;;1.70;99.90;;;;;;5054103;28;20078;-64
2022/01/15 02:48:13;;;;;;;248.20;119.82;;;1.60;99.90;;;;;;5054396;28;20029;-70
2022/01/15 02:50:40;;;;;;;213.85;99.97;;;1.60;99.90;;;;;;5054215;28;20025;-60
2022/01/15 02:53:07;;;;;;;193.32;94.28;;;1.60;99.90;;;;;;5054208;28;20043;-46
2022/01/15 02:55:33;;;;;;;179.32;92.63;;;1.60;99.90;;;;;;5054127;28;20042;-49
2022/01/15 02:57:59;;;;;;;177.55;82.75;;;1.70;99.90;;;;;;5054089;28;20108;-58
2022/01/15 03:00:26;;;;;;;175.30;86.13;;;1.70;99.90;;;;;;5053976;28;20108;-49
2022/01/15 03:02:51;;;;;;;177.43;82.50;;;1.70;99.90;;;;;;5054465;28;20085;-55
2022/01/15 03:05:17;;;;;;;266.38;120.88;;;1.70;99.90;;;;;;5054233;28;20025;-47
2022/01/15 03:07:43;;;;;;;325.75;147.73;;;1.70;99.90;;;;;;5054183;28;20043;-51
2022/01/15 03:10:09;;;;;;;230.68;109.97;;;1.50;99.90;;;;;;5054134;28;20475;-60
2022/01/15 03:12:36;;;;;;;207.68;100.15;;;1.30;99.90;;;;;;5053840;28;20522;-55
2022/01/15 03:15:05;;;;;;;198.63;99.57;;;1.30;99.90;;;;;;5053694;28;20100;-51
2022/01/15 03:17:30;;;;;;;254.95;127.15;;;1.40;99.90;;;;;;5053914;28;20379;-57
2022/01/15 03:19:56;;;;;;;469.80;215.07;;;1.40;99.90;;;;;;5053933;28;20029;-47
2022/01/15 03:22:22;;;;;;;336.77;144.05;;;1.30;99.90;;;;;;5053766;28;20020;-61
2022/01/15 03:24:49;;;;;;;358.20;158.25;;;1.30;99.90;;;;;;5053346;28;20052;-55
2022/01/15 03:27:15;;;;;;;375.52;172.38;;;1.30;99.90;;;;;;5053946;28;20029;-59
2022/01/15 03:29:41;;;;;;;480.42;241.70;;;1.20;99.90;;;;;;5053827;28;20102;-56
2022/01/15 03:32:08;;;;;;;395.17;185.98;;;1.20;99.90;;;;;;5053229;28;20383;-61
2022/01/15 03:34:34;;;;;;;364.70;168.73;;;1.10;99.90;;;;;;5053529;28;20499;-52
2022/01/15 03:37:00;;;;;;;337.02;153.88;;;1.10;99.90;;;;;;5053479;28;20067;-46
2022/01/15 03:39:26;;;;;;;363.08;162.40;;;1.20;99.90;;;;;;5053388;28;20075;-48
2022/01/15 03:41:53;;;;;;;282.48;130.98;;;1.30;99.90;;;;;;5053827;28;20059;-52
2022/01/15 03:44:19;;;;;;;256.13;123.05;;;1.40;99.90;;;;;;5053675;28;20029;-64
2022/01/15 03:46:44;;;;;;;220.05;104.32;;;1.30;99.90;;;;;;5053397;28;20032;-53
2022/01/15 03:49:10;;;;;;;203.00;96.65;;;1.30;99.90;;;;;;5053516;28;20485;-52
2022/01/15 03:51:36;;;;;;;178.07;88.15;;;1.30;99.90;;;;;;5053532;28;20017;-67
2022/01/15 03:54:02;;;;;;;208.63;100.03;;;1.20;99.90;;;;;;5053669;28;20051;-57
2022/01/15 03:56:30;;;;;;;219.43;100.90;;;1.30;99.90;;;;;;5053556;28;20087;-56
2022/01/15 03:58:56;;;;;;;180.95;85.63;;;1.10;99.90;;;;;;5053431;28;20021;-57
2022/01/15 04:01:21;;;;;;;171.57;82.60;;;1.10;99.90;;;;;;5053498;28;20090;-58
2022/01/15 04:03:47;;;;;;;151.13;73.15;;;1.20;99.90;;;;;;5053652;28;20539;-65
2022/01/15 04:06:13;;;;;;;173.25;82.65;;;1.20;99.90;;;;;;5053699;28;20025;-53
2022/01/15 04:08:39;;;;;;;188.23;91.07;;;1.30;99.90;;;;;;5053544;28;20079;-63
2022/01/15 04:11:04;;;;;;;147.07;71.28;;;1.30;99.90;;;;;;5053124;28;20053;-52
2022/01/15 04:13:30;;;;;;;185.82;86.20;;;1.20;99.90;;;;;;5053245;28;20025;-68
2022/01/15 04:15:56;;;;;;;155.80;74.30;;;1.20;99.90;;;;;;5053493;28;20108;-63
2022/01/15 04:18:23;;;;;;;142.35;67.35;;;1.20;99.90;;;;;;5053219;28;20426;-53
2022/01/15 04:20:49;;;;;;;134.82;64.88;;;1.10;99.90;;;;;;5053447;28;20021;-67
2022/01/15 04:23:14;;;;;;;206.57;96.18;;;1.10;99.90;;;;;;5053208;28;20029;-52
2022/01/15 04:25:40;;;;;;;192.73;93.57;;;1.20;99.90;;;;;;5053138;28;20029;-61
2022/01/15 04:28:11;;;;;;;161.55;76.10;;;1.10;99.90;;;;;;5053017;28;20051;-47
2022/01/15 04:30:41;;;;;;;146.52;67.70;;;1.00;99.90;;;;;;5053343;28;20032;-61
2022/01/15 04:33:07;;;;;;;154.77;77.95;;;1.10;99.90;;;;;;5052922;28;20028;-52
2022/01/15 04:35:33;;;;;;;161.02;77.40;;;1.10;99.90;;;;;;5053093;28;20029;-52
2022/01/15 04:38:07;;;;;;;162.32;79.70;;;1.10;99.90;;;;;;5053352;28;20025;-68
2022/01/15 04:40:32;;;;;;;242.57;109.43;;;1.10;99.90;;;;;;5053033;28;20025;-69
2022/01/15 04:42:58;;;;;;;235.10;105.78;;;1.10;99.90;;;;;;5052940;28;20025;-63
2022/01/15 04:45:24;;;;;;;174.30;80.10;;;1.00;99.90;;;;;;5055189;28;20495;-57
2022/01/15 04:47:50;;;;;;;168.10;80.28;;;0.90;99.90;;;;;;5056640;28;20519;-46
2022/01/15 04:50:17;;;;;;;169.13;76.68;;;0.90;99.90;;;;;;5056742;28;20028;-56
2022/01/15 04:52:43;;;;;;;216.52;104.15;;;1.00;99.90;;;;;;5056596;28;20028;-59
2022/01/15 04:55:10;;;;;;;152.88;78.03;;;0.90;99.90;;;;;;5056353;28;20112;-60
2022/01/15 04:57:37;;;;;;;158.20;74.65;;;0.80;99.90;;;;;;5056340;28;20020;-56
2022/01/15 05:00:11;;;;;;;215.52;101.55;;;0.80;99.90;;;;;;5056412;28;20119;-43
2022/01/15 05:02:36;;;;;;;174.00;84.68;;;0.90;99.90;;;;;;5056473;28;20028;-58
2022/01/15 05:05:03;;;;;;;144.75;69.78;;;0.80;99.90;;;;;;5056320;28;20021;-56
2022/01/15 05:07:28;;;;;;;151.13;71.35;;;0.80;99.90;;;;;;5056275;28;20029;-50
2022/01/15 05:09:54;;;;;;;139.75;68.38;;;0.80;99.90;;;;;;5056098;28;20078;-64
2022/01/15 05:12:32;;;;;;;166.98;76.35;;;0.90;99.90;;;;;;5056002;28;20050;-53
2022/01/15 05:14:58;;;;;;;179.25;84.20;;;0.90;99.90;;;;;;5056246;28;20033;-58
2022/01/15 05:17:24;;;;;;;128.88;62.30;;;1.00;99.90;;;;;;5056198;28;20057;-52
2022/01/15 05:19:50;;;;;;;132.63;60.35;;;1.00;99.90;;;;;;5056144;28;20025;-57
2022/01/15 05:22:17;;;;;;;123.95;61.35;;;1.10;99.90;;;;;;5055899;28;20123;-58
2022/01/15 05:24:42;;;;;;;134.95;64.13;;;1.10;99.90;;;;;;5055458;28;20040;-56
2022/01/15 05:27:08;;;;;;;140.10;65.72;;;1.10;99.90;;;;;;5055896;28;20028;-60
2022/01/15 05:29:34;;;;;;;119.53;59.35;;;1.20;99.90;;;;;;5055787;28;20033;-65
2022/01/15 05:31:59;;;;;;;155.50;77.20;;;1.20;99.90;;;;;;5055815;28;20017;-58
2022/01/15 05:34:25;;;;;;;166.15;83.10;;;1.20;99.90;;;;;;5055752;28;20044;-72
2022/01/15 05:36:51;;;;;;;237.60;112.03;;;1.20;99.90;;;;;;5055971;28;20025;-62
2022/01/15 05:39:16;;;;;;;254.52;122.63;;;1.10;99.90;;;;;;5055406;28;20027;-56
2022/01/15 05:41:42;;;;;;;188.52;94.25;;;1.00;99.90;;;;;;5055506;28;20028;-51
2022/01/15 05:44:08;;;;;;;180.85;88.00;;;1.00;99.90;;;;;;5055630;28;20402;-67
2022/01/15 05:46:34;;;;;;;173.95;83.60;;;1.10;99.90;;;;;;5055677;28;20025;-58
2022/01/15 05:49:00;;;;;;;164.02;78.57;;;1.20;99.90;;;;;;5055510;28;20021;-56
2022/01/15 05:51:29;;;;;;;154.60;70.75;;;1.30;99.90;;;;;;5055617;28;20035;-61
2022/01/15 05:53:56;;;;;;;132.55;63.55;;;1.40;99.90;;;;;;5055184;28;20108;-56
2022/01/15 05:56:22;;;;;;;129.70;64.75;;;1.50;99.90;;;;;;5055178;28;20052;-60
2022/01/15 05:58:48;;;;;;;149.55;74.75;;;1.60;99.90;;;;;;5055660;28;20021;-60
2022/01/15 06:01:14;;;;;;;127.07;63.60;;;1.60;99.90;;;;;;5055319;28;20082;-47
2022/01/15 06:03:39;;;;;;;266.10;126.60;;;1.60;99.90;;;;;;5055075;28;20025;-55
2022/01/15 06:06:05;;;;;;;189.18;89.53;;;1.50;99.90;;;;;;5055410;28;20032;-62
2022/01/15 06:08:31;;;;;;;179.02;86.40;;;1.50;99.90;;;;;;5054944;28;20021;-66
2022/01/15 06:10:56;;;;;;;167.00;83.80;;;1.60;99.90;;;;;;5054944;28;20033;-64
2022/01/15 06:13:22;;;;;;;159.68;78.32;;;1.70;99.90;;;;;;5055073;28;20021;-57
2022/01/15 06:15:48;;;;;;;140.20;69.65;;;1.70;99.90;;;;;;5054973;28;20095;-53
2022/01/15 06:18:13;;;;;;;141.73;69.20;;;1.80;99.90;;;;;;5054729;28;20028;-64
2022/01/15 06:20:39;;;;;;;127.82;63.67;;;1.80;99.90;;;;;;5054889;28;20402;-59
2022/01/15 06:23:05;;;;;;;135.77;65.55;;;1.90;99.90;;;;;;5054853;28;20052;-63
2022/01/15 06:25:30;;;;;;;169.43;85.60;;;1.90;99.90;;;;;;5054565;28;20517;-69
2022/01/15 06:27:56;;;;;;;134.68;69.53;;;1.90;99.90;;;;;;5055084;28;20053;-56
2022/01/15 06:30:22;;;;;;;129.05;65.57;;;1.90;99.90;;;;;;5054775;28;20087;-51
2022/01/15 06:32:47;;;;;;;141.02;70.65;;;1.80;99.90;;;;;;5054644;28;20056;-52
2022/01/15 06:35:16;;;;;;;134.27;67.93;;;1.90;99.90;;;;;;5054541;28;20077;-61
2022/01/15 06:37:42;;;;;;;124.38;62.03;;;1.90;99.90;;;;;;5054461;28;20538;-62
2022/01/15 06:40:09;;;;;;;106.45;54.63;;;1.90;99.90;;;;;;5054361;28;20025;-49
2022/01/15 06:42:36;;;;;;;99.90;51.03;;;2.00;99.90;;;;;;5054434;28;20356;-68
2022/01/15 06:45:06;;;;;;;105.25;51.45;;;2.10;99.90;;;;;;5054448;28;20048;-61
2022/01/15 06:47:31;;;;;;;97.03;51.80;;;2.00;99.90;;;;;;5054306;28;20526;-46
2022/01/15 06:49:57;;;;;;;104.28;50.45;;;2.10;99.90;;;;;;5054187;28;20104;-57
2022/01/15 06:52:24;;;;;;;93.57;49.58;;;2.20;99.90;;;;;;5054313;28;20521;-50
2022/01/15 06:54:50;;;;;;;87.80;45.13;;;2.30;99.90;;;;;;5054184;28;20021;-50
2022/01/15 06:57:16;;;;;;;98.40;48.78;;;2.30;99.90;;;;;;5054080;28;20065;-65
2022/01/15 06:59:44;;;;;;;103.13;51.53;;;2.40;99.90;;;;;;5054094;28;20110;-56
2022/01/15 07:02:11;;;;;;;109.85;55.88;;;2.30;99.90;;;;;;5054304;28;20025;-50
2022/01/15 07:04:37;;;;;;;114.10;56.63;;;2.40;99.90;;;;;;5054098;28;20044;-59
2022/01/15 07:07:03;;;;;;;115.50;55.78;;;2.50;99.90;;;;;;5053528;28;20025;-66
2022/01/15 07:09:29;;;;;;;99.10;52.00;;;2.50;99.90;;;;;;5053943;28;20498;-63
2022/01/15 07:11:54;;;;;;;109.13;52.15;;;2.60;99.90;;;;;;5053942;28;20017;-64
2022/01/15 07:14:20;;;;;;;104.97;53.08;;;2.60;99.90;;;;;;5053978;28;20547;-60
2022/01/15 07:16:46;;;;;;;104.50;52.25;;;2.70;99.90;;;;;;5053784;28;20471;-49
2022/01/15 07:19:11;;;;;;;133.32;62.92;;;2.70;99.90;;;;;;5053799;28;20017;-48
2022/01/15 07:21:37;;;;;;;101.88;51.22;;;2.80;99.90;;;;;;5053652;28;20021;-58
2022/01/15 07:24:03;;;;;;;109.88;54.25;;;2.70;99.90;;;;;;5053485;28;20495;-56
2022/01/15 07:26:28;;;;;;;112.90;58.05;;;2.80;99.90;;;;;;5053792;28;20040;-51
2022/01/15 07:28:57;;;;;;;130.02;62.20;;;2.80;99.90;;;;;;5053762;28;20049;-58
2022/01/15 07:31:23;;;;;;;112.93;60.17;;;2.90;99.90;;;;;;5053691;28;20103;-58
2022/01/15 07:33:49;;;;;;;155.73;73.32;;;2.90;99.90;;;;;;5053816;28;20064;-57
2022/01/15 07:36:16;;;;;;;146.80;74.53;;;3.00;99.90;;;;;;5053515;28;20035;-50
2022/01/15 07:38:42;;;;;;;196.60;96.45;;;3.10;99.90;;;;;;5053504;28;20021;-66
2022/01/15 07:41:12;;;;;;;174.88;85.57;;;3.10;99.90;;;;;;5053444;28;20017;-56
2022/01/15 07:43:38;;;;;;;148.07;76.78;;;3.10;99.90;;;;;;5053355;28;20057;-60
2022/01/15 07:46:04;;;;;;;206.60;97.80;;;3.20;99.90;;;;;;5053346;28;20125;-57
2022/01/15 07:48:30;;;;;;;269.48;132.70;;;3.20;99.90;;;;;;5053426;28;20096;-63
2022/01/15 07:50:56;;;;;;;273.52;142.63;;;3.30;99.90;;;;;;5053165;28;20035;-48
2022/01/15 07:53:22;;;;;;;252.55;131.52;;;3.10;99.90;;;;;;5053499;28;20428;-58
2022/01/15 07:55:48;;;;;;;252.57;131.38;;;3.00;99.90;;;;;;5053630;28;20056;-57
2022/01/15 07:58:13;;;;;;;346.67;188.32;;;3.00;99.90;;;;;;5053257;28;20056;-58
2022/01/15 08:00:41;;;;;;;313.45;166.63;;;3.00;99.90;;;;;;5053627;28;20072;-61
2022/01/15 08:03:07;;;;;;;284.67;148.27;;;2.90;99.90;;;;;;5053684;28;20029;-53
2022/01/15 08:05:34;;;;;;;310.95;162.18;;;2.90;99.90;;;;;;5053434;28;20157;-53
2022/01/15 08:08:00;;;;;;;298.13;154.30;;;2.90;99.90;;;;;;5053262;28;20544;-62
2022/01/15 08:10:26;;;;;;;332.23;170.73;;;2.90;99.90;;;;;;5053286;28;20048;-67
2022/01/15 08:12:51;;;;;;;311.98;162.13;;;2.80;99.90;;;;;;5053244;28;20071;-52
2022/01/15 08:15:19;;;;;;;304.27;160.13;;;2.80;99.90;;;;;;5053349;28;20072;-57
2022/01/15 08:17:45;;;;;;;310.77;161.45;;;2.80;99.90;;;;;;5053421;28;20043;-58
2022/01/15 08:20:12;;;;;;;303.45;164.77;;;3.00;99.90;;;;;;5056447;28;20025;-53
2022/01/15 08:22:42;;;;;;;293.73;159.63;;;3.00;99.90;;;;;;5057111;28;20425;-58
2022/01/15 08:25:09;;;;;;;280.27;152.23;;;3.20;99.90;;;;;;5056883;28;20045;-56
2022/01/15 08:27:35;;;;;;;271.27;149.07;;;3.20;99.90;;;;;;5056930;28;20032;-54
2022/01/15 08:30:00;;;;;;;309.85;173.73;;;3.30;99.90;;;;;;5057566;28;20032;-55
2022/01/15 08:32:26;;;;;;;331.27;175.02;;;3.40;99.90;;;;;;5056965;28;20027;-63
2022/01/15 08:34:52;;;;;;;359.88;198.80;;;3.50;99.90;;;;;;5056607;28;20526;-57
2022/01/15 08:37:18;;;;;;;359.38;196.85;;;3.60;99.90;;;;;;5056750;28;20029;-57
2022/01/15 08:39:43;;;;;;;455.95;260.25;;;3.60;99.90;;;;;;5057059;28;20104;-60
2022/01/15 08:42:09;;;;;;;446.00;258.83;;;3.60;99.90;;;;;;5056735;28;20379;-58
2022/01/15 08:44:40;;;;;;;447.05;256.80;;;3.50;99.90;;;;;;5056505;28;20023;-52
2022/01/15 08:47:06;;;;;;;414.42;230.75;;;3.50;99.90;;;;;;5056969;28;20566;-51
2022/01/15 08:49:32;;;;;;;399.35;216.73;;;3.50;99.90;;;;;;5056306;28;20060;-61
2022/01/15 08:51:58;;;;;;;379.00;207.23;;;3.60;99.90;;;;;;5056769;28;20052;-63
2022/01/15 08:54:23;;;;;;;351.33;193.95;;;3.60;99.90;;;;;;5056554;28;20528;-63
2022/01/15 08:56:49;;;;;;;417.02;235.38;;;3.70;99.90;;;;;;5056448;28;20054;-56
2022/01/15 08:59:15;;;;;;;406.80;231.77;;;3.70;99.90;;;;;;5056421;28;20055;-63
2022/01/15 09:01:41;;;;;;;378.67;208.43;;;3.70;99.90;;;;;;5056357;28;20383;-61
2022/01/15 09:04:06;;;;;;;389.20;214.50;;;3.70;99.90;;;;;;5056060;28;20472;-63
2022/01/15 09:06:32;;;;;;;320.35;178.73;;;3.70;99.90;;;;;;5056260;28;20021;-52
2022/01/15 09:08:58;;;;;;;306.50;171.15;;;3.70;99.90;;;;;;5056600;28;20100;-60
2022/01/15 09:11:24;;;;;;;386.02;210.48;;;3.80;99.90;;;;;;5056509;28;20029;-52
2022/01/15 09:13:50;;;;;;;323.25;183.05;;;3.90;99.90;;;;;;5056309;28;20510;-62
2022/01/15 09:16:15;;;;;;;407.70;235.25;;;3.90;99.90;;;;;;5055874;28;20491;-59
2022/01/15 09:18:41;;;;;;;367.38;199.27;;;4.00;99.90;;;;;;5055926;28;20021;-56
2022/01/15 09:21:07;;;;;;;292.75;166.63;;;4.00;99.90;;;;;;5056057;28;20074;-66
2022/01/15 09:23:33;;;;;;;332.88;178.18;;;4.10;99.90;;;;;;5055895;28;20060;-49
2022/01/15 09:25:59;;;;;;;312.48;171.50;;;4.20;99.90;;;;;;5055971;28;20510;-55
2022/01/15 09:31:14;;;;;;;298.52;160.63;;;4.20;99.90;;;;;;5044856;28;20120;-58
2022/01/15 09:33:41;;;;;;;314.05;165.95;;;4.20;99.90;;;;;;5055907;28;20053;-53
2022/01/15 09:36:07;;;;;;;350.20;192.70;;;4.20;99.90;;;;;;5055698;28;20029;-63
2022/01/15 09:38:33;;;;;;;331.70;184.15;;;4.20;99.90;;;;;;5055917;28;20021;-57
2022/01/15 09:40:59;;;;;;;371.45;207.73;;;4.30;99.90;;;;;;5055891;28;20021;-52
2022/01/15 09:43:25;;;;;;;369.23;208.20;;;4.30;99.90;;;;;;5055853;28;20104;-54
2022/01/15 09:45:52;;;;;;;359.88;200.65;;;4.40;99.90;;;;;;5055564;28;20025;-53
2022/01/15 09:48:19;;;;;;;334.98;183.63;;;4.40;99.90;;;;;;5055662;28;20021;-59
2022/01/15 09:50:46;;;;;;;294.40;164.43;;;4.50;99.90;;;;;;5055738;28;20021;-61
2022/01/15 09:53:16;;;;;;;318.45;178.18;;;4.50;99.90;;;;;;5055464;28;20025;-52
2022/01/15 09:55:43;;;;;;;308.55;171.88;;;4.60;99.90;;;;;;5055277;28;20491;-50
2022/01/15 09:58:09;;;;;;;285.50;159.57;;;4.70;99.90;;;;;;5055536;28;20467;-51
2022/01/15 10:00:35;;;;;;;300.95;166.15;;;4.80;99.90;;;;;;5055141;28;20044;-53
2022/01/15 10:03:02;;;;;;;297.33;162.27;;;5.00;99.90;;;;;;5055143;28;20021;-54
2022/01/15 10:05:28;;;;;;;275.05;154.75;;;5.10;99.90;;;;;;5055353;28;20027;-61
2022/01/15 10:07:54;;;;;;;269.52;145.40;;;5.20;99.90;;;;;;5055750;28;20406;-60
2022/01/15 10:10:20;;;;;;;290.83;158.32;;;5.30;99.90;;;;;;5055151;28;20113;-60
2022/01/15 10:12:46;;;;;;;274.27;144.63;;;5.40;99.90;;;;;;5055272;28;20021;-58
2022/01/15 10:15:14;;;;;;;255.32;140.75;;;5.50;99.90;;;;;;5054631;28;20360;-62
2022/01/15 10:17:40;;;;;;;271.00;149.45;;;5.60;99.90;;;;;;5054941;28;20104;-49
2022/01/15 10:20:13;;;;;;;270.15;154.98;;;5.70;99.90;;;;;;5054995;28;20078;-66
2022/01/15 10:22:45;;;;;;;242.98;138.23;;;5.60;99.90;;;;;;5054954;28;20029;-51
2022/01/15 10:25:23;;;;;;;238.60;134.63;;;5.60;99.90;;;;;;5054708;28;20053;-63
2022/01/15 10:27:54;;;;;;;226.48;131.80;;;5.70;99.90;;;;;;5054643;28;20033;-57
2022/01/15 10:30:26;;;;;;;231.32;135.73;;;5.80;99.90;;;;;;5055034;28;20096;-59
2022/01/15 10:32:56;;;;;;;247.25;140.32;;;5.90;99.90;;;;;;5054490;28;20483;-58
2022/01/15 10:35:24;;;;;;;255.70;146.48;;;5.90;99.90;;;;;;5054902;28;20120;-57
2022/01/15 10:38:01;;;;;;;282.98;154.70;;;6.00;99.90;;;;;;5054714;28;20379;-56
2022/01/15 10:40:44;;;;;;;256.58;144.52;;;6.00;99.90;;;;;;5054352;28;20029;-55
2022/01/15 10:43:12;;;;;;;252.85;138.18;;;6.00;99.90;;;;;;5053437;28;20104;-55
2022/01/15 10:45:58;;;;;;;229.23;125.38;;;6.00;99.90;;;;;;5054372;28;20025;-54
2022/01/15 10:48:35;;;;;;;343.80;187.45;;;6.10;99.90;;;;;;5054333;28;20036;-61
2022/01/15 10:51:06;;;;;;;286.65;151.73;;;6.10;99.90;;;;;;5054561;28;20039;-50
2022/01/15 10:53:40;;;;;;;263.85;143.73;;;6.10;99.90;;;;;;5054448;28;20066;-60
2022/01/15 10:56:06;;;;;;;;;;;6.00;99.90;;;;;;5054619;28;20479;-59
2022/01/15 10:58:32;;;;;;;244.88;132.95;;;6.00;99.90;;;;;;5054215;28;20337;-63
2022/01/15 11:00:58;;;;;;;231.65;126.88;;;6.00;99.90;;;;;;5054028;28;20436;-57
2022/01/15 11:03:38;;;;;;;232.43;129.73;;;6.10;99.90;;;;;;5054153;28;20067;-54
2022/01/15 11:06:05;;;;;;;237.18;133.70;;;6.30;99.90;;;;;;5054049;28;20032;-56
2022/01/15 11:08:36;;;;;;;271.20;144.95;;;6.40;99.90;;;;;;5054094;28;20017;-68
2022/01/15 11:11:04;;;;;;;264.58;140.50;;;6.50;99.90;;;;;;5053923;28;20029;-48
2022/01/15 11:13:31;;;;;;;245.10;136.32;;;6.60;99.90;;;;;;5053740;28;20463;-58
2022/01/15 11:16:00;;;;;;;245.57;134.05;;;6.60;99.90;;;;;;5053887;28;20036;-67
2022/01/15 11:18:35;;;;;;;264.10;144.77;;;6.70;99.90;;;;;;5054171;28;20059;-53
2022/01/15 11:21:05;;;;;;;315.95;171.70;;;6.80;99.90;;;;;;5053611;28;20024;-49
2022/01/15 11:23:32;;;;;;;280.73;149.27;;;6.70;99.90;;;;;;5053542;28;20491;-63
2022/01/15 11:26:01;;;;;;;253.13;140.85;;;6.80;99.90;;;;;;5053757;28;20056;-62
2022/01/15 11:28:29;;;;;;;241.23;136.35;;;6.80;99.90;;;;;;5053629;28;20352;-54
2022/01/15 11:31:02;;;;;;;240.43;132.80;;;6.90;99.90;;;;;;5053679;28;20032;-62
2022/01/15 11:33:36;;;;;;;223.95;123.70;;;7.10;99.90;;;;;;5053737;28;20032;-61
2022/01/15 11:36:03;;;;;;;221.38;123.65;;;7.20;99.90;;;;;;5053771;28;20040;-54
2022/01/15 11:38:44;;;;;;;213.43;123.07;;;7.20;99.90;;;;;;5053581;28;20032;-66
2022/01/15 11:41:28;;;;;;;256.17;137.32;;;7.40;99.90;;;;;;5053924;28;20112;-55
2022/01/15 11:43:58;;;;;;;229.95;124.30;;;7.50;99.90;;;;;;5053527;28;20099;-56
2022/01/15 11:46:28;;;;;;;281.60;155.38;;;7.50;99.90;;;;;;5053536;28;20036;-57
2022/01/15 11:49:28;;;;;;;236.23;127.60;;;7.60;99.40;;;;;;5053829;28;20079;-68
2022/01/15 11:51:57;;;;;;;198.07;110.57;;;7.60;99.90;;;;;;5053720;28;20029;-58
2022/01/15 11:54:23;;;;;;;184.57;106.05;;;7.70;99.40;;;;;;5056066;28;20552;-65
2022/01/15 11:56:49;;;;;;;241.70;126.32;;;7.80;98.30;;;;;;5057692;28;20033;-57
2022/01/15 11:59:23;;;;;;;219.35;120.53;;;7.90;98.90;;;;;;5057530;28;20022;-52
2022/01/15 12:01:54;;;;;;;241.35;128.13;;;7.90;98.00;;;;;;5057592;28;20491;-54
2022/01/15 12:04:41;;;;;;;214.52;118.82;;;7.90;98.60;;;;;;5057364;28;20021;-63
2022/01/15 12:07:06;;;;;;;202.00;117.60;;;7.90;97.40;;;;;;5057580;28;20487;-62
2022/01/15 12:09:42;;;;;;;229.77;129.65;;;7.90;96.60;;;;;;5057530;28;20075;-64
2022/01/15 12:12:38;;;;;;;236.43;135.82;;;7.90;95.50;;;;;;5057234;28;20028;-61
2022/01/15 12:15:06;;;;;;;247.13;141.13;;;7.90;95.60;;;;;;5057326;28;20028;-48
2022/01/15 12:17:44;;;;;;;240.65;139.18;;;7.90;95.70;;;;;;5057605;28;20446;-59
2022/01/15 12:20:25;;;;;;;304.05;168.20;;;7.90;95.50;;;;;;5057245;28;20031;-59
2022/01/15 12:22:56;;;;;;;266.30;150.07;;;7.90;93.70;;;;;;5057179;28;20514;-51
2022/01/15 12:25:30;;;;;;;262.65;140.10;;;7.70;95.00;;;;;;5056755;28;20059;-59
2022/01/15 12:28:06;;;;;;;297.80;155.63;;;7.70;95.40;;;;;;5057266;28;20049;-56
2022/01/15 12:30:41;;;;;;;408.08;199.25;;;7.60;95.60;;;;;;5057046;28;20021;-54
2022/01/15 12:33:11;;;;;;;327.65;169.93;;;7.70;95.50;;;;;;5056832;28;20013;-46
2022/01/15 12:35:39;;;;;;;329.13;169.70;;;7.70;96.10;;;;;;5057098;28;20475;-51
2022/01/15 12:38:10;;;;;;;315.13;161.60;;;7.70;96.70;;;;;;5056668;28;20028;-69
2022/01/15 12:40:42;;;;;;;465.17;227.73;;;7.70;97.30;;;;;;5056743;28;20096;-64
2022/01/15 12:43:29;;;;;;;358.95;181.85;;;7.80;96.90;;;;;;5056977;28;20021;-66
2022/01/15 12:46:04;;;;;;;370.58;192.45;;;7.80;96.20;;;;;;5056733;28;20104;-62
2022/01/15 12:48:31;;;;;;;418.85;211.13;;;7.90;95.70;;;;;;5057013;28;20021;-61